createdAt,value
2022-10-12T00:02:26.163Z,96674.44
2022-10-12T00:04:53.265Z,96670.63
2022-10-12T00:07:20.340Z,96672.75
2022-10-12T00:09:47.399Z,96664.19
2022-10-12T00:12:14.443Z,96672.81
2022-10-12T00:14:41.525Z,96678.59
2022-10-12T00:17:08.667Z,96673.06
2022-10-12T00:19:35.747Z,96680.22
2022-10-12T00:22:02.836Z,96668.19
2022-10-12T00:24:30.024Z,96675.81
2022-10-12T00:26:58.299Z,96675.41
2022-10-12T00:29:25.420Z,96672.28
2022-10-12T00:31:52.473Z,96673.09
2022-10-12T00:34:19.518Z,96673.09
2022-10-12T00:36:46.583Z,96673.97
2022-10-12T00:39:13.705Z,96675.97
2022-10-12T00:41:43.060Z,96663.09
2022-10-12T00:44:38.134Z,96676.06
2022-10-12T00:47:13.229Z,96668.03
2022-10-12T00:49:40.501Z,96670.72
2022-10-12T00:52:11.424Z,96674.84
2022-10-12T00:54:43.782Z,96668.22
2022-10-12T00:57:13.399Z,96674.66
2022-10-12T00:59:44.040Z,96679.41
2022-10-12T01:02:12.680Z,96683.56
2022-10-12T01:04:40.428Z,96681.72
2022-10-12T01:07:07.533Z,96690.53
2022-10-12T01:09:34.699Z,96682.88
2022-10-12T01:12:05.101Z,96683.03
2022-10-12T01:14:32.176Z,96682.78
2022-10-12T01:17:14.262Z,96683.84
2022-10-12T01:20:10.247Z,96677.09
2022-10-12T01:22:48.277Z,96680.16
2022-10-12T01:25:25.288Z,96665.75
2022-10-12T01:27:55.456Z,96678.25
2022-10-12T01:30:22.603Z,96669.09
2022-10-12T01:33:34.266Z,96662.97
2022-10-12T01:36:15.473Z,96666.19
2022-10-12T01:39:11.709Z,96668.34
2022-10-12T01:41:49.655Z,96665.06
2022-10-12T01:44:25.255Z,96660.00
2022-10-12T01:46:54.393Z,96652.63
2022-10-12T01:49:29.129Z,96649.16
2022-10-12T01:52:07.471Z,96638.59
2022-10-12T01:55:16.884Z,96640.25
2022-10-12T01:58:00.748Z,96640.31
2022-10-12T02:00:28.886Z,96644.22
2022-10-12T02:03:21.988Z,96639.13
2022-10-12T02:06:01.253Z,96640.19
2022-10-12T02:08:40.817Z,96648.25
2022-10-12T02:11:10.098Z,96640.56
2022-10-12T02:13:48.192Z,96634.94
2022-10-12T02:16:19.837Z,96628.38
2022-10-12T02:18:51.855Z,96623.66
2022-10-12T02:21:22.395Z,96624.69
2022-10-12T02:23:52.497Z,96622.88
2022-10-12T02:26:21.379Z,96613.66
2022-10-12T02:28:49.685Z,96603.94
2022-10-12T02:31:39.433Z,96614.50
2022-10-12T02:34:21.259Z,96608.94
2022-10-12T02:37:23.557Z,96605.25
2022-10-12T02:39:54.422Z,96612.56
2022-10-12T02:42:46.590Z,96612.13
2022-10-12T02:45:22.752Z,96618.09
2022-10-12T02:47:53.733Z,96610.50
2022-10-12T02:50:22.902Z,96612.06
2022-10-12T02:52:51.287Z,96606.44
2022-10-12T02:55:18.442Z,96605.94
2022-10-12T02:57:45.591Z,96598.16
2022-10-12T03:00:13.143Z,96606.00
2022-10-12T03:02:40.199Z,96599.50
2022-10-12T03:05:07.590Z,96597.81
2022-10-12T03:07:34.712Z,96598.00
2022-10-12T03:10:01.855Z,96605.13
2022-10-12T03:12:28.903Z,96593.16
2022-10-12T03:14:55.953Z,96599.91
2022-10-12T03:17:23.079Z,96597.06
2022-10-12T03:19:50.131Z,96604.50
2022-10-12T03:22:17.153Z,96589.91
2022-10-12T03:24:44.237Z,96599.91
2022-10-12T03:27:11.268Z,96600.69
2022-10-12T03:29:38.408Z,96582.06
2022-10-12T03:32:05.455Z,96589.50
2022-10-12T03:34:32.516Z,96597.34
2022-10-12T03:36:59.554Z,96595.19
2022-10-12T03:39:26.726Z,96580.13
2022-10-12T03:41:56.129Z,96603.41
2022-10-12T03:44:23.259Z,96598.66
2022-10-12T03:46:50.404Z,96607.69
2022-10-12T03:49:18.515Z,96600.69
2022-10-12T03:51:45.545Z,96602.53
2022-10-12T03:54:12.705Z,96600.22
2022-10-12T03:56:39.877Z,96591.28
2022-10-12T03:59:06.987Z,96596.06
2022-10-12T04:01:34.097Z,96591.66
2022-10-12T04:04:01.245Z,96606.09
2022-10-12T04:06:28.314Z,96607.59
2022-10-12T04:08:55.432Z,96607.59
2022-10-12T04:11:22.947Z,96604.81
2022-10-12T04:13:50.142Z,96607.09
2022-10-12T04:16:17.242Z,96605.56
2022-10-12T04:18:44.530Z,96608.47
2022-10-12T04:21:14.782Z,96611.22
2022-10-12T04:23:42.505Z,96607.09
2022-10-12T04:26:09.805Z,96610.81
2022-10-12T04:28:36.933Z,96603.72
2022-10-12T04:31:04.022Z,96599.28
2022-10-12T04:33:31.545Z,96595.03
2022-10-12T04:36:00.890Z,96596.78
2022-10-12T04:38:27.951Z,96596.00
2022-10-12T04:40:55.058Z,96600.19
2022-10-12T04:43:22.194Z,96593.81
2022-10-12T04:45:59.846Z,96600.22
2022-10-12T04:48:27.166Z,96596.41
2022-10-12T04:50:54.226Z,96597.38
2022-10-12T04:53:21.316Z,96598.63
2022-10-12T04:55:48.479Z,96594.94
2022-10-12T04:58:15.604Z,96589.03
2022-10-12T05:00:42.764Z,96593.97
2022-10-12T05:03:09.839Z,96594.75
2022-10-12T05:05:36.904Z,96587.53
2022-10-12T05:08:04.975Z,96584.38
2022-10-12T05:10:32.084Z,96587.44
2022-10-12T05:12:59.216Z,96584.47
2022-10-12T05:15:26.274Z,96593.00
2022-10-12T05:17:53.524Z,96587.53
2022-10-12T05:20:20.622Z,96583.66
2022-10-12T05:22:47.712Z,96588.69
2022-10-12T05:25:14.846Z,96584.38
2022-10-12T05:27:42.450Z,96584.38
2022-10-12T05:30:09.981Z,96586.41
2022-10-12T05:32:37.861Z,96584.84
2022-10-12T05:35:05.563Z,96575.22
2022-10-12T05:37:33.615Z,96576.41
2022-10-12T05:40:00.657Z,96581.75
2022-10-12T05:42:27.718Z,96581.28
2022-10-12T05:44:54.768Z,96576.53
2022-10-12T05:47:21.894Z,96581.56
2022-10-12T05:49:48.988Z,96594.47
2022-10-12T05:52:16.123Z,96583.66
2022-10-12T05:54:43.204Z,96585.34
2022-10-12T05:57:10.312Z,96591.53
2022-10-12T05:59:37.354Z,96589.25
2022-10-12T06:02:04.467Z,96588.28
2022-10-12T06:04:31.612Z,96597.34
2022-10-12T06:06:58.722Z,96595.97
2022-10-12T06:09:26.041Z,96589.34
2022-10-12T06:11:53.185Z,96588.00
2022-10-12T06:14:20.225Z,96589.91
2022-10-12T06:16:51.090Z,96590.31
2022-10-12T06:19:21.735Z,96586.19
2022-10-12T06:21:48.796Z,96590.88
2022-10-12T06:24:15.923Z,96598.19
2022-10-12T06:26:42.969Z,96600.84
2022-10-12T06:29:10.037Z,96604.28
2022-10-12T06:31:38.402Z,96602.06
2022-10-12T06:34:06.349Z,96607.38
2022-10-12T06:36:33.436Z,96605.63
2022-10-12T06:39:00.498Z,96603.84
2022-10-12T06:41:27.578Z,96607.72
2022-10-12T06:43:54.660Z,96606.75
2022-10-12T06:46:21.730Z,96606.81
2022-10-12T06:48:48.828Z,96609.31
2022-10-12T06:51:15.929Z,96598.88
2022-10-12T06:53:43.084Z,96608.66
2022-10-12T06:56:10.942Z,96602.72
2022-10-12T06:58:38.568Z,96597.41
2022-10-12T07:01:07.714Z,96601.19
2022-10-12T07:03:34.932Z,96611.34
2022-10-12T07:06:07.469Z,96614.16
2022-10-12T07:08:34.795Z,96612.19
2022-10-12T07:11:07.114Z,96617.81
2022-10-12T07:13:34.670Z,96613.31
2022-10-12T07:16:02.051Z,96620.50
2022-10-12T07:18:29.161Z,96623.75
2022-10-12T07:20:58.468Z,96621.56
2022-10-12T07:23:29.861Z,96623.97
2022-10-12T07:25:56.974Z,96621.69
2022-10-12T07:28:24.227Z,96631.53
2022-10-12T07:30:51.403Z,96623.63
2022-10-12T07:33:18.496Z,96623.41
2022-10-12T07:36:12.925Z,96621.66
2022-10-12T07:38:44.822Z,96626.97
2022-10-12T07:41:12.772Z,96629.13
2022-10-12T07:43:39.886Z,96622.66
2022-10-12T07:46:07.443Z,96623.09
2022-10-12T07:48:34.575Z,96626.13
2022-10-12T07:51:10.007Z,96620.25
2022-10-12T07:53:38.628Z,96624.34
2022-10-12T07:56:14.780Z,96622.88
2022-10-12T07:58:49.715Z,96628.72
2022-10-12T08:01:18.341Z,96625.38
2022-10-12T08:03:45.437Z,96634.19
2022-10-12T08:06:16.650Z,96634.00
2022-10-12T08:08:44.050Z,96629.84
2022-10-12T08:11:12.358Z,96630.03
2022-10-12T08:13:40.459Z,96638.09
2022-10-12T08:16:12.066Z,96635.13
2022-10-12T08:18:39.403Z,96637.91
2022-10-12T08:21:08.511Z,96641.91
2022-10-12T08:23:37.045Z,96641.19
2022-10-12T08:26:05.121Z,96641.56
2022-10-12T08:28:32.952Z,96641.06
2022-10-12T08:31:00.188Z,96638.44
2022-10-12T08:33:29.171Z,96637.53
2022-10-12T08:35:56.222Z,96641.97
2022-10-12T08:38:23.329Z,96634.47
2022-10-12T08:40:56.525Z,96635.38
2022-10-12T08:43:32.658Z,96620.56
2022-10-12T08:46:02.400Z,96628.94
2022-10-12T08:48:59.441Z,96631.78
2022-10-12T08:51:31.343Z,96641.44
2022-10-12T08:54:08.185Z,96632.13
2022-10-12T08:56:35.829Z,96632.56
2022-10-12T08:59:03.573Z,96618.91
2022-10-12T09:01:38.368Z,96626.47
2022-10-12T09:04:31.263Z,96621.81
2022-10-12T09:07:06.190Z,96622.56
2022-10-12T09:09:33.245Z,96620.59
2022-10-12T09:12:18.624Z,96628.50
2022-10-12T09:14:47.747Z,96621.47
2022-10-12T09:17:26.155Z,96624.72
2022-10-12T09:20:01.772Z,96628.78
2022-10-12T09:22:30.365Z,96633.53
2022-10-12T09:24:59.070Z,96634.38
2022-10-12T09:27:31.436Z,96632.81
2022-10-12T09:30:02.783Z,96643.94
2022-10-12T09:33:00.141Z,96634.91
2022-10-12T09:35:27.428Z,96639.25
2022-10-12T09:37:54.887Z,96628.97
2022-10-12T09:40:31.087Z,96630.97
2022-10-12T09:43:00.715Z,96627.00
2022-10-12T09:45:30.825Z,96625.78
2022-10-12T09:48:23.979Z,96623.44
2022-10-12T09:50:51.033Z,96620.22
2022-10-12T09:53:24.698Z,96627.28
2022-10-12T09:55:54.087Z,96629.69
2022-10-12T09:58:21.778Z,96625.38
2022-10-12T10:01:34.950Z,96629.69
2022-10-12T10:04:15.744Z,96623.38
2022-10-12T10:06:46.349Z,96626.53
2022-10-12T10:09:33.015Z,96623.41
2022-10-12T10:12:24.145Z,96617.09
2022-10-12T10:14:53.623Z,96619.47
2022-10-12T10:17:24.617Z,96612.44
2022-10-12T10:19:53.484Z,96617.16
2022-10-12T10:22:22.388Z,96613.16
2022-10-12T10:25:00.204Z,96612.31
2022-10-12T10:27:37.183Z,96613.50
2022-10-12T10:30:30.104Z,96617.81
2022-10-12T10:33:18.315Z,96617.28
2022-10-12T10:36:25.000Z,96617.25
2022-10-12T10:38:59.955Z,96618.75
2022-10-12T10:41:33.154Z,96612.38
2022-10-12T10:44:00.242Z,96614.03
2022-10-12T10:46:31.687Z,96610.06
2022-10-12T10:49:07.146Z,96612.72
2022-10-12T10:51:40.262Z,96610.25
2022-10-12T10:54:27.493Z,96615.91
2022-10-12T10:57:02.232Z,96621.97
2022-10-12T10:59:39.238Z,96611.63
2022-10-12T11:02:19.652Z,96613.47
2022-10-12T11:04:51.877Z,96613.53
2022-10-12T11:07:48.273Z,96618.59
2022-10-12T11:10:29.048Z,96610.63
2022-10-12T11:13:12.360Z,96610.69
2022-10-12T11:15:52.846Z,96615.28
2022-10-12T11:18:42.335Z,96612.53
2022-10-12T11:21:20.818Z,96618.31
2022-10-12T11:23:57.084Z,96619.81
2022-10-12T11:26:24.183Z,96619.50
2022-10-12T11:28:54.866Z,96618.66
2022-10-12T11:31:26.545Z,96619.13
2022-10-12T11:33:58.208Z,96619.53
2022-10-12T11:36:29.689Z,96614.03
2022-10-12T11:39:05.867Z,96612.44
2022-10-12T11:42:16.791Z,96618.78
2022-10-12T11:44:44.398Z,96607.34
2022-10-12T11:47:32.512Z,96599.41
2022-10-12T11:50:27.424Z,96598.22
2022-10-12T11:52:57.307Z,96601.78
2022-10-12T11:55:35.091Z,96602.19
2022-10-12T11:58:13.697Z,96598.19
2022-10-12T12:01:15.717Z,96607.69
2022-10-12T12:03:45.852Z,96604.91
2022-10-12T12:06:31.026Z,96603.63
2022-10-12T12:09:05.412Z,96592.97
2022-10-12T12:11:34.618Z,96601.16
2022-10-12T12:14:26.552Z,96601.91
2022-10-12T12:17:15.625Z,96593.59
2022-10-12T12:19:47.823Z,96582.72
2022-10-12T12:22:31.230Z,96580.25
2022-10-12T12:25:07.928Z,96584.50
2022-10-12T12:27:36.963Z,96583.69
2022-10-12T12:30:32.364Z,96583.19
2022-10-12T12:33:27.209Z,96571.28
2022-10-12T12:35:58.881Z,96563.69
2022-10-12T12:38:31.956Z,96559.78
2022-10-12T12:41:06.974Z,96569.94
2022-10-12T12:43:34.015Z,96562.38
2022-10-12T12:46:02.286Z,96571.47
2022-10-12T12:48:41.525Z,96574.09
2022-10-12T12:51:13.399Z,96574.50
2022-10-12T12:53:48.652Z,96571.22
2022-10-12T12:56:45.059Z,96572.41
2022-10-12T12:59:28.845Z,96573.56
2022-10-12T13:02:14.411Z,96583.28
2022-10-12T13:05:00.207Z,96576.63
2022-10-12T13:07:56.603Z,96577.38
2022-10-12T13:10:59.721Z,96579.28
2022-10-12T13:13:55.682Z,96582.38
2022-10-12T13:19:44.374Z,96582.50
2022-10-12T13:22:26.032Z,96581.75
2022-10-12T13:24:59.195Z,96579.91
2022-10-12T13:27:33.973Z,96571.16
2022-10-12T13:30:06.223Z,96570.22
2022-10-12T13:32:51.135Z,96563.25
2022-10-12T13:35:43.383Z,96552.56
2022-10-12T13:38:27.885Z,96553.44
2022-10-12T13:41:06.335Z,96551.25
2022-10-12T13:44:02.622Z,96549.47
2022-10-12T13:46:43.514Z,96542.69
2022-10-12T13:49:24.966Z,96543.22
2022-10-12T13:51:55.845Z,96542.91
2022-10-12T13:54:37.515Z,96545.66
2022-10-12T13:57:35.792Z,96547.84
2022-10-12T14:00:27.653Z,96537.88
2022-10-12T14:03:00.424Z,96525.59
2022-10-12T14:05:32.112Z,96528.59
2022-10-12T14:08:13.056Z,96540.81
2022-10-12T14:10:42.017Z,96537.56
2022-10-12T14:13:15.548Z,96538.00
2022-10-12T14:15:42.870Z,96531.97
2022-10-12T14:18:31.542Z,96531.31
2022-10-12T14:21:13.149Z,96530.84
2022-10-12T14:23:46.938Z,96530.94
2022-10-12T14:26:39.661Z,96526.16
2022-10-12T14:29:25.437Z,96536.31
2022-10-12T14:31:55.714Z,96531.53
2022-10-12T14:34:28.437Z,96533.25
2022-10-12T14:37:14.275Z,96536.47
2022-10-12T14:39:45.937Z,96536.75
2022-10-12T14:42:29.505Z,96539.09
2022-10-12T14:44:56.662Z,96533.22
2022-10-12T14:47:37.533Z,96536.09
2022-10-12T14:50:08.368Z,96527.41
2022-10-12T14:52:38.171Z,96531.72
2022-10-12T14:55:06.521Z,96533.69
2022-10-12T14:57:33.676Z,96527.19
2022-10-12T15:00:00.899Z,96525.69
2022-10-12T15:02:30.732Z,96529.19
2022-10-12T15:04:59.258Z,96516.66
2022-10-12T15:07:33.688Z,96527.38
2022-10-12T15:10:01.267Z,96521.03
2022-10-12T15:12:31.811Z,96517.91
2022-10-12T15:15:01.212Z,96511.78
2022-10-12T15:17:28.124Z,96507.91
2022-10-12T15:19:55.799Z,96499.13
2022-10-12T15:22:26.073Z,96504.56
2022-10-12T15:24:54.450Z,96496.66
2022-10-12T15:27:21.939Z,96497.44
2022-10-12T15:29:49.050Z,96492.16
2022-10-12T15:32:18.477Z,96494.56
2022-10-12T15:34:45.439Z,96493.22
2022-10-12T15:37:12.451Z,96492.50
2022-10-12T15:39:39.645Z,96489.84
2022-10-12T15:42:06.704Z,96495.13
2022-10-12T15:44:40.818Z,96482.56
2022-10-12T15:47:09.902Z,96488.72
2022-10-12T15:49:37.053Z,96479.41
2022-10-12T15:52:05.921Z,96487.53
2022-10-12T15:54:33.216Z,96479.28
2022-10-12T15:57:00.288Z,96471.84
2022-10-12T15:59:27.575Z,96479.09
2022-10-12T16:01:54.693Z,96484.03
2022-10-12T16:04:22.447Z,96490.41
2022-10-12T16:06:49.549Z,96495.53
2022-10-12T16:09:16.597Z,96493.81
2022-10-12T16:11:43.692Z,96497.09
2022-10-12T16:14:14.307Z,96490.88
2022-10-12T16:16:41.391Z,96498.69
2022-10-12T16:19:08.458Z,96485.88
2022-10-12T16:21:35.530Z,96490.19
2022-10-12T16:24:02.621Z,96486.56
2022-10-12T16:26:29.693Z,96486.47
2022-10-12T16:28:56.782Z,96487.31
2022-10-12T16:31:23.966Z,96483.81
2022-10-12T16:33:51.197Z,96472.25
2022-10-12T16:36:18.292Z,96477.28
2022-10-12T16:38:45.546Z,96470.97
2022-10-12T16:41:15.197Z,96462.50
2022-10-12T16:43:43.700Z,96474.31
2022-10-12T16:46:10.975Z,96468.84
2022-10-12T16:48:38.343Z,96471.19
2022-10-12T16:51:10.660Z,96467.63
2022-10-12T16:53:37.841Z,96469.63
2022-10-12T16:56:05.134Z,96470.41
2022-10-12T16:58:32.938Z,96464.09
2022-10-12T17:01:11.733Z,96474.34
2022-10-12T17:03:38.994Z,96473.63
2022-10-12T17:06:06.460Z,96468.13
2022-10-12T17:08:35.482Z,96468.09
2022-10-12T17:11:11.440Z,96476.00
2022-10-12T17:13:39.746Z,96482.31
2022-10-12T17:16:41.129Z,96490.19
2022-10-12T17:19:08.366Z,96488.59
2022-10-12T17:21:37.676Z,96498.06
2022-10-12T17:24:05.068Z,96499.25
2022-10-12T17:26:32.150Z,96496.09
2022-10-12T17:28:59.262Z,96496.88
2022-10-12T17:31:26.396Z,96494.50
2022-10-12T17:33:54.175Z,96490.97
2022-10-12T17:36:24.497Z,96481.91
2022-10-12T17:38:57.901Z,96480.72
2022-10-12T17:41:27.174Z,96485.41
2022-10-12T17:43:54.901Z,96483.81
2022-10-12T17:46:22.824Z,96474.34
2022-10-12T17:48:50.510Z,96483.03
2022-10-12T17:51:18.183Z,96495.94
2022-10-12T17:53:45.319Z,96491.94
2022-10-12T17:56:14.126Z,96496.34
2022-10-12T17:58:41.375Z,96501.66
2022-10-12T18:01:15.306Z,96509.44
2022-10-12T18:03:44.452Z,96524.22
2022-10-12T18:06:18.255Z,96518.78
2022-10-12T18:08:45.679Z,96500.81
2022-10-12T18:11:13.664Z,96511.19
2022-10-12T18:13:44.341Z,96520.31
2022-10-12T18:16:11.733Z,96527.38
2022-10-12T18:18:39.553Z,96530.84
2022-10-12T18:21:08.214Z,96535.44
2022-10-12T18:23:35.293Z,96515.91
2022-10-12T18:26:04.606Z,96512.75
2022-10-12T18:28:32.133Z,96521.13
2022-10-12T18:30:59.339Z,96521.19
2022-10-12T18:33:26.551Z,96516.13
2022-10-12T18:35:54.223Z,96507.84
2022-10-12T18:38:21.333Z,96506.13
2022-10-12T18:40:48.469Z,96510.88
2022-10-12T18:43:15.753Z,96515.94
2022-10-12T18:45:46.027Z,96511.75
2022-10-12T18:48:13.490Z,96507.78
2022-10-12T18:50:40.585Z,96499.44
2022-10-12T18:53:07.741Z,96510.41
2022-10-12T18:55:38.237Z,96505.22
2022-10-12T18:58:05.694Z,96513.84
2022-10-12T19:00:32.994Z,96527.00
2022-10-12T19:03:00.098Z,96525.88
2022-10-12T19:05:27.181Z,96528.00
2022-10-12T19:07:54.279Z,96532.00
2022-10-12T19:10:21.341Z,96533.94
2022-10-12T19:12:48.396Z,96529.59
2022-10-12T19:15:15.517Z,96525.63
2022-10-12T19:17:42.599Z,96526.75
2022-10-12T19:20:09.877Z,96525.50
2022-10-12T19:22:37.087Z,96524.75
2022-10-12T19:25:04.429Z,96518.38
2022-10-12T19:27:31.569Z,96513.44
2022-10-12T19:29:58.613Z,96503.28
2022-10-12T19:32:25.687Z,96516.25
2022-10-12T19:34:52.921Z,96523.81
2022-10-12T19:37:20.029Z,96527.06
2022-10-12T19:39:48.791Z,96522.31
2022-10-12T19:42:16.194Z,96521.50
2022-10-12T19:44:43.492Z,96524.38
2022-10-12T19:47:10.553Z,96512.31
2022-10-12T19:49:40.877Z,96514.94
2022-10-12T19:52:10.316Z,96517.59
2022-10-12T19:54:37.362Z,96513.13
2022-10-12T19:57:04.483Z,96534.81
2022-10-12T19:59:31.621Z,96522.22
2022-10-12T20:01:58.704Z,96518.31
2022-10-12T20:04:25.734Z,96518.81
2022-10-12T20:06:52.851Z,96523.03
2022-10-12T20:09:19.919Z,96519.16
2022-10-12T20:11:47.051Z,96517.47
2022-10-12T20:14:14.102Z,96515.81
2022-10-12T20:16:41.230Z,96523.41
2022-10-12T20:19:08.389Z,96520.66
2022-10-12T20:21:36.569Z,96525.03
2022-10-12T20:24:04.089Z,96521.56
2022-10-12T20:26:31.419Z,96521.03
2022-10-12T20:28:58.459Z,96517.91
2022-10-12T20:31:27.485Z,96504.00
2022-10-12T20:33:56.002Z,96503.09
2022-10-12T20:36:26.683Z,96501.44
2022-10-12T20:38:54.400Z,96504.09
2022-10-12T20:41:23.154Z,96500.94
2022-10-12T20:43:54.081Z,96498.03
2022-10-12T20:46:21.148Z,96509.34
2022-10-12T20:48:48.189Z,96505.25
2022-10-12T20:51:21.694Z,96512.94
2022-10-12T20:53:50.745Z,96517.38
2022-10-12T20:56:17.944Z,96510.72
2022-10-12T20:58:45.149Z,96510.81
2022-10-12T21:01:14.607Z,96495.94
2022-10-12T21:03:42.375Z,96499.44
2022-10-12T21:06:12.257Z,96491.91
2022-10-12T21:08:40.753Z,96493.25
2022-10-12T21:11:09.728Z,96494.53
2022-10-12T21:13:41.232Z,96492.91
2022-10-12T21:16:09.515Z,96487.91
2022-10-12T21:18:38.377Z,96497.44
2022-10-12T21:21:11.356Z,96492.22
2022-10-12T21:23:42.496Z,96488.25
2022-10-12T21:26:18.128Z,96483.28
2022-10-12T21:28:45.935Z,96486.28
2022-10-12T21:31:14.428Z,96485.00
2022-10-12T21:33:41.793Z,96490.25
2022-10-12T21:36:20.189Z,96487.09
2022-10-12T21:38:47.702Z,96477.19
2022-10-12T21:41:16.304Z,96493.84
2022-10-12T21:43:43.696Z,96484.91
2022-10-12T21:46:13.156Z,96484.47
2022-10-12T21:48:40.322Z,96484.00
2022-10-12T21:51:09.070Z,96478.47
2022-10-12T21:53:37.344Z,96479.28
2022-10-12T21:56:22.320Z,96479.72
2022-10-12T21:58:50.985Z,96489.94
2022-10-12T22:01:24.530Z,96489.44
2022-10-12T22:03:56.325Z,96484.97
2022-10-12T22:06:25.425Z,96481.63
2022-10-12T22:08:58.003Z,96498.34
2022-10-12T22:11:27.141Z,96487.63
2022-10-12T22:13:59.354Z,96491.75
2022-10-12T22:16:29.023Z,96493.72
2022-10-12T22:18:59.712Z,96495.34
2022-10-12T22:21:33.283Z,96497.00
2022-10-12T22:24:00.811Z,96486.03
2022-10-12T22:26:28.231Z,96493.22
2022-10-12T22:28:56.038Z,96489.25
2022-10-12T22:31:24.660Z,96491.16
2022-10-12T22:33:53.293Z,96486.38
2022-10-12T22:36:20.357Z,96490.56
2022-10-12T22:38:47.486Z,96479.38
2022-10-12T22:41:17.189Z,96479.09
2022-10-12T22:43:52.360Z,96474.63
2022-10-12T22:46:21.101Z,96469.47
2022-10-12T22:48:48.509Z,96478.84
2022-10-12T22:51:18.947Z,96473.63
2022-10-12T22:53:46.102Z,96472.84
2022-10-12T22:56:18.409Z,96469.69
2022-10-12T22:58:46.603Z,96476.38
2022-10-12T23:01:16.257Z,96476.81
2022-10-12T23:03:43.519Z,96476.03
2022-10-12T23:06:12.761Z,96473.63
2022-10-12T23:08:40.314Z,96473.47
2022-10-12T23:11:12.745Z,96475.19
2022-10-12T23:13:40.998Z,96480.63
2022-10-12T23:16:10.962Z,96474.69
2022-10-12T23:18:39.152Z,96469.16
2022-10-12T23:21:08.864Z,96470.09
2022-10-12T23:23:37.272Z,96467.19
2022-10-12T23:26:07.476Z,96459.97
2022-10-12T23:28:35.045Z,96462.41
2022-10-12T23:31:06.435Z,96456.28
2022-10-12T23:33:34.203Z,96465.06
2022-10-12T23:36:07.223Z,96470.94
2022-10-12T23:38:36.311Z,96470.31
2022-10-12T23:41:04.596Z,96467.38
2022-10-12T23:43:32.310Z,96468.31
2022-10-12T23:46:02.916Z,96473.25
2022-10-12T23:48:30.127Z,96460.53
2022-10-12T23:50:57.183Z,96460.78
2022-10-12T23:53:25.149Z,96460.94
2022-10-12T23:55:53.122Z,96456.06
2022-10-12T23:58:20.442Z,96458.94
